sensor_id;sensor_type;location;lat;lon;timestamp;temperature;humidity
6291;DHT22;3178;48.730;8.990;2022-08-07T00:00:35;14.80;93.20
6291;DHT22;3178;48.730;8.990;2022-08-07T00:03:01;14.70;93.20
6291;DHT22;3178;48.730;8.990;2022-08-07T00:05:27;14.70;93.10
6291;DHT22;3178;48.730;8.990;2022-08-07T00:07:54;14.60;93.50
6291;DHT22;3178;48.730;8.990;2022-08-07T00:10:20;14.70;94.00
6291;DHT22;3178;48.730;8.990;2022-08-07T00:12:48;14.70;93.50
6291;DHT22;3178;48.730;8.990;2022-08-07T00:15:14;14.70;93.90
6291;DHT22;3178;48.730;8.990;2022-08-07T00:17:39;14.70;93.80
6291;DHT22;3178;48.730;8.990;2022-08-07T00:20:05;14.70;93.90
6291;DHT22;3178;48.730;8.990;2022-08-07T00:22:31;14.70;93.80
6291;DHT22;3178;48.730;8.990;2022-08-07T00:24:57;14.70;94.00
6291;DHT22;3178;48.730;8.990;2022-08-07T00:27:22;14.80;93.90
6291;DHT22;3178;48.730;8.990;2022-08-07T00:29:48;14.70;93.80
6291;DHT22;3178;48.730;8.990;2022-08-07T00:32:14;14.70;93.40
6291;DHT22;3178;48.730;8.990;2022-08-07T00:34:40;14.80;93.50
6291;DHT22;3178;48.730;8.990;2022-08-07T00:37:06;14.70;93.40
6291;DHT22;3178;48.730;8.990;2022-08-07T00:39:34;14.70;92.80
6291;DHT22;3178;48.730;8.990;2022-08-07T00:42:00;14.70;93.10
6291;DHT22;3178;48.730;8.990;2022-08-07T00:44:25;14.70;93.30
6291;DHT22;3178;48.730;8.990;2022-08-07T00:46:51;14.70;93.80
6291;DHT22;3178;48.730;8.990;2022-08-07T00:49:17;14.60;94.10
6291;DHT22;3178;48.730;8.990;2022-08-07T00:51:43;14.60;94.30
6291;DHT22;3178;48.730;8.990;2022-08-07T00:54:09;14.50;93.90
6291;DHT22;3178;48.730;8.990;2022-08-07T00:56:35;14.50;94.20
6291;DHT22;3178;48.730;8.990;2022-08-07T00:59:01;14.30;94.10
6291;DHT22;3178;48.730;8.990;2022-08-07T01:01:27;14.40;94.50
6291;DHT22;3178;48.730;8.990;2022-08-07T01:03:53;14.30;94.60
6291;DHT22;3178;48.730;8.990;2022-08-07T01:06:19;14.40;95.30
6291;DHT22;3178;48.730;8.990;2022-08-07T01:08:45;14.30;95.20
6291;DHT22;3178;48.730;8.990;2022-08-07T01:11:12;14.10;95.90
6291;DHT22;3178;48.730;8.990;2022-08-07T01:13:38;14.10;95.60
6291;DHT22;3178;48.730;8.990;2022-08-07T01:16:05;14.20;95.70
6291;DHT22;3178;48.730;8.990;2022-08-07T01:18:31;14.00;96.20
6291;DHT22;3178;48.730;8.990;2022-08-07T01:21:17;14.00;97.20
6291;DHT22;3178;48.730;8.990;2022-08-07T01:23:49;13.90;97.50
6291;DHT22;3178;48.730;8.990;2022-08-07T01:26:16;14.00;96.50
6291;DHT22;3178;48.730;8.990;2022-08-07T01:28:44;13.90;96.80
6291;DHT22;3178;48.730;8.990;2022-08-07T01:31:09;13.90;97.00
6291;DHT22;3178;48.730;8.990;2022-08-07T01:33:36;14.00;97.20
6291;DHT22;3178;48.730;8.990;2022-08-07T01:36:02;13.90;97.70
6291;DHT22;3178;48.730;8.990;2022-08-07T01:38:29;13.80;97.20
6291;DHT22;3178;48.730;8.990;2022-08-07T01:41:00;13.70;97.60
6291;DHT22;3178;48.730;8.990;2022-08-07T01:43:27;13.80;98.00
6291;DHT22;3178;48.730;8.990;2022-08-07T01:45:53;13.80;98.50
6291;DHT22;3178;48.730;8.990;2022-08-07T01:48:19;13.80;97.30
6291;DHT22;3178;48.730;8.990;2022-08-07T01:50:47;13.80;98.70
6291;DHT22;3178;48.730;8.990;2022-08-07T01:53:16;13.80;99.00
6291;DHT22;3178;48.730;8.990;2022-08-07T01:55:46;13.70;98.50
6291;DHT22;3178;48.730;8.990;2022-08-07T01:58:15;13.80;99.00
6291;DHT22;3178;48.730;8.990;2022-08-07T02:00:43;13.80;99.10
6291;DHT22;3178;48.730;8.990;2022-08-07T02:03:12;13.80;99.50
6291;DHT22;3178;48.730;8.990;2022-08-07T02:05:43;13.80;99.40
6291;DHT22;3178;48.730;8.990;2022-08-07T02:08:13;13.70;99.90
6291;DHT22;3178;48.730;8.990;2022-08-07T02:10:41;13.90;99.70
6291;DHT22;3178;48.730;8.990;2022-08-07T02:13:08;13.80;99.90
6291;DHT22;3178;48.730;8.990;2022-08-07T02:15:35;13.80;99.90
6291;DHT22;3178;48.730;8.990;2022-08-07T02:18:02;13.80;99.90
6291;DHT22;3178;48.730;8.990;2022-08-07T02:20:29;13.80;99.90
6291;DHT22;3178;48.730;8.990;2022-08-07T02:22:59;13.70;99.90
6291;DHT22;3178;48.730;8.990;2022-08-07T02:25:26;13.60;99.90
6291;DHT22;3178;48.730;8.990;2022-08-07T02:27:54;13.70;99.90
6291;DHT22;3178;48.730;8.990;2022-08-07T02:30:20;13.60;99.90
6291;DHT22;3178;48.730;8.990;2022-08-07T02:32:48;13.70;99.90
6291;DHT22;3178;48.730;8.990;2022-08-07T02:35:15;13.60;99.90
6291;DHT22;3178;48.730;8.990;2022-08-07T02:37:44;13.60;99.90
6291;DHT22;3178;48.730;8.990;2022-08-07T02:40:11;13.50;99.90
6291;DHT22;3178;48.730;8.990;2022-08-07T02:42:38;13.70;99.90
6291;DHT22;3178;48.730;8.990;2022-08-07T02:45:05;13.60;99.90
6291;DHT22;3178;48.730;8.990;2022-08-07T02:47:32;13.50;99.90
6291;DHT22;3178;48.730;8.990;2022-08-07T02:49:58;13.50;99.90
6291;DHT22;3178;48.730;8.990;2022-08-07T02:52:33;13.40;99.90
6291;DHT22;3178;48.730;8.990;2022-08-07T02:55:36;13.40;99.90
6291;DHT22;3178;48.730;8.990;2022-08-07T02:57:56;13.40;99.90
6291;DHT22;3178;48.730;8.990;2022-08-07T03:00:24;13.50;99.90
6291;DHT22;3178;48.730;8.990;2022-08-07T03:02:51;13.50;99.90
6291;DHT22;3178;48.730;8.990;2022-08-07T03:05:18;13.40;99.90
6291;DHT22;3178;48.730;8.990;2022-08-07T03:07:44;13.40;99.90
6291;DHT22;3178;48.730;8.990;2022-08-07T03:10:11;13.40;99.90
6291;DHT22;3178;48.730;8.990;2022-08-07T03:12:37;13.30;99.90
6291;DHT22;3178;48.730;8.990;2022-08-07T03:15:05;13.30;99.90
6291;DHT22;3178;48.730;8.990;2022-08-07T03:17:32;13.30;99.90
6291;DHT22;3178;48.730;8.990;2022-08-07T03:19:59;13.20;99.90
6291;DHT22;3178;48.730;8.990;2022-08-07T03:22:25;13.20;99.90
6291;DHT22;3178;48.730;8.990;2022-08-07T03:24:52;13.20;99.90
6291;DHT22;3178;48.730;8.990;2022-08-07T03:27:18;13.20;99.90
6291;DHT22;3178;48.730;8.990;2022-08-07T03:29:47;13.10;99.90
6291;DHT22;3178;48.730;8.990;2022-08-07T03:32:15;13.10;99.90
6291;DHT22;3178;48.730;8.990;2022-08-07T03:34:42;13.10;99.90
6291;DHT22;3178;48.730;8.990;2022-08-07T03:37:09;13.10;99.90
6291;DHT22;3178;48.730;8.990;2022-08-07T03:39:36;13.00;99.90
6291;DHT22;3178;48.730;8.990;2022-08-07T03:42:03;13.20;99.90
6291;DHT22;3178;48.730;8.990;2022-08-07T03:44:32;13.00;99.90
6291;DHT22;3178;48.730;8.990;2022-08-07T03:46:58;13.00;99.90
6291;DHT22;3178;48.730;8.990;2022-08-07T03:49:24;13.00;99.90
6291;DHT22;3178;48.730;8.990;2022-08-07T03:51:50;12.90;99.90
6291;DHT22;3178;48.730;8.990;2022-08-07T03:54:17;12.90;99.90
6291;DHT22;3178;48.730;8.990;2022-08-07T03:56:42;12.90;99.90
6291;DHT22;3178;48.730;8.990;2022-08-07T03:59:11;12.90;99.90
6291;DHT22;3178;48.730;8.990;2022-08-07T04:01:41;12.90;99.90
6291;DHT22;3178;48.730;8.990;2022-08-07T04:04:07;12.90;99.90
6291;DHT22;3178;48.730;8.990;2022-08-07T04:06:32;12.80;99.90
6291;DHT22;3178;48.730;8.990;2022-08-07T04:09:00;13.00;99.90
6291;DHT22;3178;48.730;8.990;2022-08-07T04:11:26;12.90;99.90
6291;DHT22;3178;48.730;8.990;2022-08-07T04:13:53;13.10;99.90
6291;DHT22;3178;48.730;8.990;2022-08-07T04:16:20;13.00;99.90
6291;DHT22;3178;48.730;8.990;2022-08-07T04:18:46;12.90;99.90
6291;DHT22;3178;48.730;8.990;2022-08-07T04:21:11;12.90;99.90
6291;DHT22;3178;48.730;8.990;2022-08-07T04:23:38;13.00;99.90
6291;DHT22;3178;48.730;8.990;2022-08-07T04:26:06;13.00;99.90
6291;DHT22;3178;48.730;8.990;2022-08-07T04:28:32;12.90;99.90
6291;DHT22;3178;48.730;8.990;2022-08-07T04:30:57;12.90;99.90
6291;DHT22;3178;48.730;8.990;2022-08-07T04:33:25;13.00;99.90
6291;DHT22;3178;48.730;8.990;2022-08-07T04:35:52;13.10;99.90
6291;DHT22;3178;48.730;8.990;2022-08-07T04:38:18;13.00;99.90
6291;DHT22;3178;48.730;8.990;2022-08-07T04:40:45;12.90;99.90
6291;DHT22;3178;48.730;8.990;2022-08-07T04:43:13;13.00;99.90
6291;DHT22;3178;48.730;8.990;2022-08-07T04:46:06;13.00;99.90
6291;DHT22;3178;48.730;8.990;2022-08-07T04:48:48;13.20;99.90
6291;DHT22;3178;48.730;8.990;2022-08-07T04:51:36;13.10;99.90
6291;DHT22;3178;48.730;8.990;2022-08-07T04:54:15;13.10;99.90
6291;DHT22;3178;48.730;8.990;2022-08-07T04:56:46;13.20;99.90
6291;DHT22;3178;48.730;8.990;2022-08-07T05:00:00;13.30;99.90
6291;DHT22;3178;48.730;8.990;2022-08-07T05:02:31;13.20;99.90
6291;DHT22;3178;48.730;8.990;2022-08-07T05:07:55;13.20;99.90
6291;DHT22;3178;48.730;8.990;2022-08-07T05:13:05;13.30;99.90
6291;DHT22;3178;48.730;8.990;2022-08-07T05:15:38;13.30;99.90
6291;DHT22;3178;48.730;8.990;2022-08-07T05:18:07;13.30;99.90
6291;DHT22;3178;48.730;8.990;2022-08-07T05:20:46;13.40;99.90
6291;DHT22;3178;48.730;8.990;2022-08-07T05:26:01;13.50;99.90
6291;DHT22;3178;48.730;8.990;2022-08-07T05:28:29;13.50;99.90
6291;DHT22;3178;48.730;8.990;2022-08-07T05:30:57;13.60;99.90
6291;DHT22;3178;48.730;8.990;2022-08-07T05:33:24;13.80;99.90
6291;DHT22;3178;48.730;8.990;2022-08-07T05:35:51;13.90;99.90
6291;DHT22;3178;48.730;8.990;2022-08-07T05:38:19;14.00;99.90
6291;DHT22;3178;48.730;8.990;2022-08-07T05:40:46;14.30;99.90
6291;DHT22;3178;48.730;8.990;2022-08-07T05:43:13;14.40;99.90
6291;DHT22;3178;48.730;8.990;2022-08-07T05:45:40;14.80;99.90
6291;DHT22;3178;48.730;8.990;2022-08-07T05:48:07;14.80;99.90
6291;DHT22;3178;48.730;8.990;2022-08-07T05:50:33;15.20;99.90
6291;DHT22;3178;48.730;8.990;2022-08-07T05:53:00;15.30;99.90
6291;DHT22;3178;48.730;8.990;2022-08-07T05:55:26;15.60;99.90
6291;DHT22;3178;48.730;8.990;2022-08-07T05:57:53;15.70;99.90
6291;DHT22;3178;48.730;8.990;2022-08-07T06:00:20;16.10;99.90
6291;DHT22;3178;48.730;8.990;2022-08-07T06:02:49;16.30;99.90
6291;DHT22;3178;48.730;8.990;2022-08-07T06:05:16;16.50;99.90
6291;DHT22;3178;48.730;8.990;2022-08-07T06:07:43;16.70;99.90
6291;DHT22;3178;48.730;8.990;2022-08-07T06:10:10;16.80;99.90
6291;DHT22;3178;48.730;8.990;2022-08-07T06:12:36;17.00;99.90
6291;DHT22;3178;48.730;8.990;2022-08-07T06:15:02;17.30;99.90
6291;DHT22;3178;48.730;8.990;2022-08-07T06:17:30;17.30;99.90
6291;DHT22;3178;48.730;8.990;2022-08-07T06:19:56;17.50;99.90
6291;DHT22;3178;48.730;8.990;2022-08-07T06:22:24;17.50;99.90
6291;DHT22;3178;48.730;8.990;2022-08-07T06:24:50;17.80;99.90
6291;DHT22;3178;48.730;8.990;2022-08-07T06:27:20;18.00;99.90
6291;DHT22;3178;48.730;8.990;2022-08-07T06:29:46;18.00;99.90
6291;DHT22;3178;48.730;8.990;2022-08-07T06:32:11;18.20;99.90
6291;DHT22;3178;48.730;8.990;2022-08-07T06:34:37;18.40;99.90
6291;DHT22;3178;48.730;8.990;2022-08-07T06:37:03;18.60;99.90
6291;DHT22;3178;48.730;8.990;2022-08-07T06:39:28;18.70;99.90
6291;DHT22;3178;48.730;8.990;2022-08-07T06:42:05;18.90;99.90
6291;DHT22;3178;48.730;8.990;2022-08-07T06:44:31;18.90;99.90
6291;DHT22;3178;48.730;8.990;2022-08-07T06:46:58;18.90;99.90
6291;DHT22;3178;48.730;8.990;2022-08-07T06:49:24;19.00;99.90
6291;DHT22;3178;48.730;8.990;2022-08-07T06:51:50;19.20;99.90
6291;DHT22;3178;48.730;8.990;2022-08-07T06:54:17;19.20;99.90
6291;DHT22;3178;48.730;8.990;2022-08-07T06:56:44;19.20;99.90
6291;DHT22;3178;48.730;8.990;2022-08-07T06:59:21;19.40;99.90
6291;DHT22;3178;48.730;8.990;2022-08-07T07:01:48;19.90;99.90
6291;DHT22;3178;48.730;8.990;2022-08-07T07:04:15;19.90;99.90
6291;DHT22;3178;48.730;8.990;2022-08-07T07:06:41;20.20;99.90
6291;DHT22;3178;48.730;8.990;2022-08-07T07:09:25;20.40;99.90
6291;DHT22;3178;48.730;8.990;2022-08-07T07:14:45;20.60;99.90
6291;DHT22;3178;48.730;8.990;2022-08-07T07:17:17;20.80;99.90
6291;DHT22;3178;48.730;8.990;2022-08-07T07:19:47;20.90;99.90
6291;DHT22;3178;48.730;8.990;2022-08-07T07:22:16;21.00;99.90
6291;DHT22;3178;48.730;8.990;2022-08-07T07:24:41;20.80;99.90
6291;DHT22;3178;48.730;8.990;2022-08-07T07:27:09;21.00;99.90
6291;DHT22;3178;48.730;8.990;2022-08-07T07:29:38;21.00;99.90
6291;DHT22;3178;48.730;8.990;2022-08-07T07:32:07;21.10;99.90
6291;DHT22;3178;48.730;8.990;2022-08-07T07:34:35;21.20;99.90
6291;DHT22;3178;48.730;8.990;2022-08-07T07:37:03;21.20;99.90
6291;DHT22;3178;48.730;8.990;2022-08-07T07:39:30;21.10;99.90
6291;DHT22;3178;48.730;8.990;2022-08-07T07:41:56;21.20;99.90
6291;DHT22;3178;48.730;8.990;2022-08-07T07:44:26;21.50;99.90
6291;DHT22;3178;48.730;8.990;2022-08-07T07:46:54;21.60;99.90
6291;DHT22;3178;48.730;8.990;2022-08-07T07:49:22;21.50;99.90
6291;DHT22;3178;48.730;8.990;2022-08-07T07:51:50;21.50;99.90
6291;DHT22;3178;48.730;8.990;2022-08-07T07:54:17;21.90;99.90
6291;DHT22;3178;48.730;8.990;2022-08-07T07:56:44;22.20;99.90
6291;DHT22;3178;48.730;8.990;2022-08-07T07:59:11;22.30;99.90
6291;DHT22;3178;48.730;8.990;2022-08-07T08:01:42;22.60;99.90
6291;DHT22;3178;48.730;8.990;2022-08-07T08:04:10;23.10;99.90
6291;DHT22;3178;48.730;8.990;2022-08-07T08:06:38;23.10;98.40
6291;DHT22;3178;48.730;8.990;2022-08-07T08:09:06;23.30;99.80
6291;DHT22;3178;48.730;8.990;2022-08-07T08:11:33;23.70;99.00
6291;DHT22;3178;48.730;8.990;2022-08-07T08:13:59;23.90;95.60
6291;DHT22;3178;48.730;8.990;2022-08-07T08:16:33;23.60;95.50
6291;DHT22;3178;48.730;8.990;2022-08-07T08:18:59;23.50;94.80
6291;DHT22;3178;48.730;8.990;2022-08-07T08:21:26;23.40;95.40
6291;DHT22;3178;48.730;8.990;2022-08-07T08:24:12;23.30;95.80
6291;DHT22;3178;48.730;8.990;2022-08-07T08:26:59;24.00;95.80
6291;DHT22;3178;48.730;8.990;2022-08-07T08:29:57;24.40;95.00
6291;DHT22;3178;48.730;8.990;2022-08-07T08:32:26;24.50;92.60
6291;DHT22;3178;48.730;8.990;2022-08-07T08:34:56;24.30;91.60
6291;DHT22;3178;48.730;8.990;2022-08-07T08:37:25;24.00;91.40
6291;DHT22;3178;48.730;8.990;2022-08-07T08:39:51;23.90;91.00
6291;DHT22;3178;48.730;8.990;2022-08-07T08:42:39;23.90;91.40
6291;DHT22;3178;48.730;8.990;2022-08-07T08:45:36;24.20;90.80
6291;DHT22;3178;48.730;8.990;2022-08-07T08:54:31;25.00;82.50
6291;DHT22;3178;48.730;8.990;2022-08-07T08:56:43;25.00;83.00
6291;DHT22;3178;48.730;8.990;2022-08-07T09:02:08;24.60;83.30
6291;DHT22;3178;48.730;8.990;2022-08-07T09:07:21;25.10;83.10
6291;DHT22;3178;48.730;8.990;2022-08-07T09:12:47;25.80;79.90
6291;DHT22;3178;48.730;8.990;2022-08-07T09:18:21;26.30;82.30
6291;DHT22;3178;48.730;8.990;2022-08-07T09:24:02;26.50;74.30
6291;DHT22;3178;48.730;8.990;2022-08-07T09:31:54;26.30;73.60
6291;DHT22;3178;48.730;8.990;2022-08-07T09:34:28;25.80;74.30
6291;DHT22;3178;48.730;8.990;2022-08-07T09:45:23;25.50;73.50
6291;DHT22;3178;48.730;8.990;2022-08-07T09:50:49;26.10;68.90
6291;DHT22;3178;48.730;8.990;2022-08-07T09:53:20;26.00;67.70
6291;DHT22;3178;48.730;8.990;2022-08-07T10:05:02;25.90;68.50
6291;DHT22;3178;48.730;8.990;2022-08-07T10:10:27;26.30;64.20
6291;DHT22;3178;48.730;8.990;2022-08-07T10:13:08;26.00;65.80
6291;DHT22;3178;48.730;8.990;2022-08-07T10:16:06;26.10;67.00
6291;DHT22;3178;48.730;8.990;2022-08-07T10:18:50;26.20;66.00
6291;DHT22;3178;48.730;8.990;2022-08-07T10:24:42;26.20;64.90
6291;DHT22;3178;48.730;8.990;2022-08-07T10:30:04;26.50;64.90
6291;DHT22;3178;48.730;8.990;2022-08-07T10:35:41;26.60;62.50
6291;DHT22;3178;48.730;8.990;2022-08-07T10:38:29;26.30;61.50
6291;DHT22;3178;48.730;8.990;2022-08-07T10:47:20;26.00;60.10
6291;DHT22;3178;48.730;8.990;2022-08-07T10:50:04;26.10;60.60
6291;DHT22;3178;48.730;8.990;2022-08-07T10:55:15;26.60;59.30
6291;DHT22;3178;48.730;8.990;2022-08-07T10:58:08;26.50;59.20
6291;DHT22;3178;48.730;8.990;2022-08-07T11:01:00;26.70;60.10
6291;DHT22;3178;48.730;8.990;2022-08-07T11:03:41;27.20;59.90
6291;DHT22;3178;48.730;8.990;2022-08-07T11:06:20;27.30;57.20
6291;DHT22;3178;48.730;8.990;2022-08-07T11:09:04;27.00;57.60
6291;DHT22;3178;48.730;8.990;2022-08-07T11:11:48;27.00;57.80
6291;DHT22;3178;48.730;8.990;2022-08-07T11:14:27;26.90;57.40
6291;DHT22;3178;48.730;8.990;2022-08-07T11:17:02;26.70;57.60
6291;DHT22;3178;48.730;8.990;2022-08-07T11:24:51;26.40;56.70
6291;DHT22;3178;48.730;8.990;2022-08-07T11:27:22;26.20;58.00
6291;DHT22;3178;48.730;8.990;2022-08-07T11:32:17;26.60;58.50
6291;DHT22;3178;48.730;8.990;2022-08-07T11:35:01;26.60;58.50
6291;DHT22;3178;48.730;8.990;2022-08-07T11:40:28;26.40;57.80
6291;DHT22;3178;48.730;8.990;2022-08-07T11:46:45;26.20;59.10
6291;DHT22;3178;48.730;8.990;2022-08-07T11:49:16;26.20;58.70
6291;DHT22;3178;48.730;8.990;2022-08-07T11:59:59;26.30;58.80
6291;DHT22;3178;48.730;8.990;2022-08-07T12:13:28;26.50;60.50
6291;DHT22;3178;48.730;8.990;2022-08-07T12:16:02;26.80;60.00
6291;DHT22;3178;48.730;8.990;2022-08-07T12:18:38;26.90;58.60
6291;DHT22;3178;48.730;8.990;2022-08-07T12:21:44;26.70;58.00
6291;DHT22;3178;48.730;8.990;2022-08-07T12:27:45;26.50;59.10
6291;DHT22;3178;48.730;8.990;2022-08-07T12:30:11;26.60;62.20
6291;DHT22;3178;48.730;8.990;2022-08-07T12:35:16;26.80;58.90
6291;DHT22;3178;48.730;8.990;2022-08-07T12:37:47;26.70;58.90
6291;DHT22;3178;48.730;8.990;2022-08-07T12:40:19;26.70;59.20
6291;DHT22;3178;48.730;8.990;2022-08-07T12:42:46;26.70;59.60
6291;DHT22;3178;48.730;8.990;2022-08-07T12:45:17;26.80;60.00
6291;DHT22;3178;48.730;8.990;2022-08-07T12:51:11;26.60;58.40
6291;DHT22;3178;48.730;8.990;2022-08-07T12:56:48;26.80;62.30
6291;DHT22;3178;48.730;8.990;2022-08-07T12:59:22;27.20;59.60
6291;DHT22;3178;48.730;8.990;2022-08-07T13:02:28;27.40;60.20
6291;DHT22;3178;48.730;8.990;2022-08-07T13:22:03;27.00;58.10
6291;DHT22;3178;48.730;8.990;2022-08-07T13:24:47;27.00;60.00
6291;DHT22;3178;48.730;8.990;2022-08-07T13:30:04;27.10;60.20
6291;DHT22;3178;48.730;8.990;2022-08-07T13:32:54;27.20;57.70
6291;DHT22;3178;48.730;8.990;2022-08-07T13:35:46;27.20;57.10
6291;DHT22;3178;48.730;8.990;2022-08-07T13:40:55;26.80;58.70
6291;DHT22;3178;48.730;8.990;2022-08-07T13:43:22;26.70;58.60
6291;DHT22;3178;48.730;8.990;2022-08-07T13:45:53;26.90;59.50
6291;DHT22;3178;48.730;8.990;2022-08-07T13:48:21;26.90;57.90
6291;DHT22;3178;48.730;8.990;2022-08-07T13:50:49;26.70;58.00
6291;DHT22;3178;48.730;8.990;2022-08-07T13:53:27;26.70;57.70
6291;DHT22;3178;48.730;8.990;2022-08-07T13:55:55;26.60;57.80
6291;DHT22;3178;48.730;8.990;2022-08-07T13:58:23;26.60;57.90
6291;DHT22;3178;48.730;8.990;2022-08-07T14:01:11;26.40;57.70
6291;DHT22;3178;48.730;8.990;2022-08-07T14:03:39;26.30;60.10
6291;DHT22;3178;48.730;8.990;2022-08-07T14:06:07;26.40;59.50
6291;DHT22;3178;48.730;8.990;2022-08-07T14:08:38;26.60;60.40
6291;DHT22;3178;48.730;8.990;2022-08-07T14:11:05;26.90;63.00
6291;DHT22;3178;48.730;8.990;2022-08-07T14:13:32;27.00;58.10
6291;DHT22;3178;48.730;8.990;2022-08-07T14:16:03;27.10;59.50
6291;DHT22;3178;48.730;8.990;2022-08-07T14:18:39;27.10;58.60
6291;DHT22;3178;48.730;8.990;2022-08-07T14:21:14;27.00;57.70
6291;DHT22;3178;48.730;8.990;2022-08-07T14:23:58;27.00;59.40
6291;DHT22;3178;48.730;8.990;2022-08-07T14:26:48;26.90;58.30
6291;DHT22;3178;48.730;8.990;2022-08-07T14:29:18;26.60;57.70
6291;DHT22;3178;48.730;8.990;2022-08-07T14:31:46;26.40;57.80
6291;DHT22;3178;48.730;8.990;2022-08-07T14:34:12;26.40;59.10
6291;DHT22;3178;48.730;8.990;2022-08-07T14:36:39;26.30;59.30
6291;DHT22;3178;48.730;8.990;2022-08-07T14:39:06;26.40;59.50
6291;DHT22;3178;48.730;8.990;2022-08-07T14:41:33;26.30;58.70
6291;DHT22;3178;48.730;8.990;2022-08-07T14:44:06;26.30;62.80
6291;DHT22;3178;48.730;8.990;2022-08-07T14:46:34;26.20;60.20
6291;DHT22;3178;48.730;8.990;2022-08-07T14:49:02;26.10;59.60
6291;DHT22;3178;48.730;8.990;2022-08-07T14:51:28;26.00;58.80
6291;DHT22;3178;48.730;8.990;2022-08-07T14:53:58;26.00;59.80
6291;DHT22;3178;48.730;8.990;2022-08-07T14:56:27;25.90;61.90
6291;DHT22;3178;48.730;8.990;2022-08-07T14:58:57;26.00;59.30
6291;DHT22;3178;48.730;8.990;2022-08-07T15:01:27;25.90;59.50
6291;DHT22;3178;48.730;8.990;2022-08-07T15:03:58;25.90;61.80
6291;DHT22;3178;48.730;8.990;2022-08-07T15:06:26;26.00;62.50
6291;DHT22;3178;48.730;8.990;2022-08-07T15:08:54;26.00;59.10
6291;DHT22;3178;48.730;8.990;2022-08-07T15:11:29;26.10;59.10
6291;DHT22;3178;48.730;8.990;2022-08-07T15:13:59;26.10;59.70
6291;DHT22;3178;48.730;8.990;2022-08-07T15:16:36;26.00;61.50
6291;DHT22;3178;48.730;8.990;2022-08-07T15:19:05;26.10;58.40
6291;DHT22;3178;48.730;8.990;2022-08-07T15:21:34;26.10;59.90
6291;DHT22;3178;48.730;8.990;2022-08-07T15:24:05;26.00;59.40
6291;DHT22;3178;48.730;8.990;2022-08-07T15:26:43;26.00;58.90
6291;DHT22;3178;48.730;8.990;2022-08-07T15:29:13;26.00;60.30
6291;DHT22;3178;48.730;8.990;2022-08-07T15:31:41;25.90;61.60
6291;DHT22;3178;48.730;8.990;2022-08-07T15:34:09;26.10;59.50
6291;DHT22;3178;48.730;8.990;2022-08-07T15:36:35;26.00;58.00
6291;DHT22;3178;48.730;8.990;2022-08-07T15:39:03;26.10;58.20
6291;DHT22;3178;48.730;8.990;2022-08-07T15:41:30;25.90;58.10
6291;DHT22;3178;48.730;8.990;2022-08-07T15:44:06;25.90;59.10
6291;DHT22;3178;48.730;8.990;2022-08-07T15:46:34;25.90;57.90
6291;DHT22;3178;48.730;8.990;2022-08-07T15:49:03;26.00;57.70
6291;DHT22;3178;48.730;8.990;2022-08-07T15:51:30;25.90;58.10
6291;DHT22;3178;48.730;8.990;2022-08-07T15:53:58;26.00;59.10
6291;DHT22;3178;48.730;8.990;2022-08-07T15:56:35;25.90;58.20
6291;DHT22;3178;48.730;8.990;2022-08-07T15:59:08;25.90;58.30
6291;DHT22;3178;48.730;8.990;2022-08-07T16:01:38;25.90;58.30
6291;DHT22;3178;48.730;8.990;2022-08-07T16:04:09;25.90;58.10
6291;DHT22;3178;48.730;8.990;2022-08-07T16:06:52;25.80;61.10
6291;DHT22;3178;48.730;8.990;2022-08-07T16:09:51;25.80;59.70
6291;DHT22;3178;48.730;8.990;2022-08-07T16:18:13;25.60;58.80
6291;DHT22;3178;48.730;8.990;2022-08-07T16:21:00;25.60;58.50
6291;DHT22;3178;48.730;8.990;2022-08-07T16:33:51;25.50;59.40
6291;DHT22;3178;48.730;8.990;2022-08-07T16:36:29;25.50;61.30
6291;DHT22;3178;48.730;8.990;2022-08-07T16:39:27;25.30;59.70
6291;DHT22;3178;48.730;8.990;2022-08-07T16:58:03;25.20;59.70
6291;DHT22;3178;48.730;8.990;2022-08-07T17:00:43;25.10;59.30
6291;DHT22;3178;48.730;8.990;2022-08-07T17:03:19;25.00;58.80
6291;DHT22;3178;48.730;8.990;2022-08-07T17:06:11;25.00;59.90
6291;DHT22;3178;48.730;8.990;2022-08-07T17:08:55;25.00;60.70
6291;DHT22;3178;48.730;8.990;2022-08-07T17:11:33;25.00;61.50
6291;DHT22;3178;48.730;8.990;2022-08-07T17:14:11;25.00;62.30
6291;DHT22;3178;48.730;8.990;2022-08-07T17:16:50;25.00;60.00
6291;DHT22;3178;48.730;8.990;2022-08-07T17:19:39;24.90;60.30
6291;DHT22;3178;48.730;8.990;2022-08-07T17:22:14;24.80;63.60
6291;DHT22;3178;48.730;8.990;2022-08-07T17:30:45;24.70;61.30
6291;DHT22;3178;48.730;8.990;2022-08-07T17:33:16;24.70;61.30
6291;DHT22;3178;48.730;8.990;2022-08-07T17:36:04;24.60;60.50
6291;DHT22;3178;48.730;8.990;2022-08-07T17:38:39;24.60;60.20
6291;DHT22;3178;48.730;8.990;2022-08-07T17:47:05;24.40;63.10
6291;DHT22;3178;48.730;8.990;2022-08-07T17:49:55;24.40;60.70
6291;DHT22;3178;48.730;8.990;2022-08-07T17:52:42;24.30;60.80
6291;DHT22;3178;48.730;8.990;2022-08-07T17:55:16;24.20;63.20
6291;DHT22;3178;48.730;8.990;2022-08-07T17:57:48;24.10;66.20
6291;DHT22;3178;48.730;8.990;2022-08-07T18:00:20;24.00;71.70
6291;DHT22;3178;48.730;8.990;2022-08-07T18:08:33;23.30;71.30
6291;DHT22;3178;48.730;8.990;2022-08-07T18:11:12;23.00;74.50
6291;DHT22;3178;48.730;8.990;2022-08-07T18:18:50;22.70;66.20
6291;DHT22;3178;48.730;8.990;2022-08-07T18:21:32;22.60;75.80
6291;DHT22;3178;48.730;8.990;2022-08-07T18:24:27;22.50;76.90
6291;DHT22;3178;48.730;8.990;2022-08-07T18:29:41;22.20;80.70
6291;DHT22;3178;48.730;8.990;2022-08-07T18:32:33;22.10;74.90
6291;DHT22;3178;48.730;8.990;2022-08-07T18:35:20;22.00;79.20
6291;DHT22;3178;48.730;8.990;2022-08-07T18:40:56;21.90;76.90
6291;DHT22;3178;48.730;8.990;2022-08-07T18:43:30;21.70;80.80
6291;DHT22;3178;48.730;8.990;2022-08-07T18:46:07;21.60;77.20
6291;DHT22;3178;48.730;8.990;2022-08-07T18:48:44;21.70;73.00
6291;DHT22;3178;48.730;8.990;2022-08-07T18:51:18;21.60;76.70
6291;DHT22;3178;48.730;8.990;2022-08-07T18:54:08;21.70;77.70
6291;DHT22;3178;48.730;8.990;2022-08-07T18:56:49;21.50;75.70
6291;DHT22;3178;48.730;8.990;2022-08-07T19:00:10;21.40;77.60
6291;DHT22;3178;48.730;8.990;2022-08-07T19:05:19;21.20;76.70
6291;DHT22;3178;48.730;8.990;2022-08-07T19:07:59;21.00;76.20
6291;DHT22;3178;48.730;8.990;2022-08-07T19:10:45;21.00;77.20
6291;DHT22;3178;48.730;8.990;2022-08-07T19:13:25;20.90;76.00
6291;DHT22;3178;48.730;8.990;2022-08-07T19:19:03;20.80;74.10
6291;DHT22;3178;48.730;8.990;2022-08-07T19:21:45;20.80;74.10
6291;DHT22;3178;48.730;8.990;2022-08-07T19:24:21;20.80;75.00
6291;DHT22;3178;48.730;8.990;2022-08-07T19:26:51;20.70;75.70
6291;DHT22;3178;48.730;8.990;2022-08-07T19:29:17;20.70;73.90
6291;DHT22;3178;48.730;8.990;2022-08-07T19:31:52;20.60;73.70
6291;DHT22;3178;48.730;8.990;2022-08-07T19:34:23;20.70;74.20
6291;DHT22;3178;48.730;8.990;2022-08-07T19:36:52;20.60;74.20
6291;DHT22;3178;48.730;8.990;2022-08-07T19:39:22;20.50;75.40
6291;DHT22;3178;48.730;8.990;2022-08-07T19:41:51;20.50;75.90
6291;DHT22;3178;48.730;8.990;2022-08-07T19:44:34;20.30;74.00
6291;DHT22;3178;48.730;8.990;2022-08-07T19:47:07;20.30;73.50
6291;DHT22;3178;48.730;8.990;2022-08-07T19:49:53;20.20;73.10
6291;DHT22;3178;48.730;8.990;2022-08-07T19:52:25;20.10;75.80
6291;DHT22;3178;48.730;8.990;2022-08-07T19:54:51;20.10;74.10
6291;DHT22;3178;48.730;8.990;2022-08-07T19:57:19;20.00;73.90
6291;DHT22;3178;48.730;8.990;2022-08-07T19:59:49;20.00;73.70
6291;DHT22;3178;48.730;8.990;2022-08-07T20:02:26;19.90;74.30
6291;DHT22;3178;48.730;8.990;2022-08-07T20:04:53;19.80;74.70